sensor_id;sensor_type;location;lat;lon;timestamp;pressure;altitude;pressure_sealevel;temperature;humidity
65534;BME280;53640;55.838;37.184;2022-08-21T00:01:58;100006.13;;;17.61;30.80
65534;BME280;53640;55.838;37.184;2022-08-21T00:04:24;100014.97;;;17.68;30.84
65534;BME280;53640;55.838;37.184;2022-08-21T00:06:51;99982.28;;;17.44;30.81
65534;BME280;53640;55.838;37.184;2022-08-21T00:09:19;100017.41;;;17.64;30.82
65534;BME280;53640;55.838;37.184;2022-08-21T00:11:46;100000.31;;;17.57;31.14
65534;BME280;53640;55.838;37.184;2022-08-21T00:14:14;99983.94;;;17.45;31.12
65534;BME280;53640;55.838;37.184;2022-08-21T00:16:40;100001.97;;;17.58;30.92
65534;BME280;53640;55.838;37.184;2022-08-21T00:19:07;99983.47;;;17.32;31.31
65534;BME280;53640;55.838;37.184;2022-08-21T00:21:35;99977.50;;;17.35;30.83
65534;BME280;53640;55.838;37.184;2022-08-21T00:24:02;99989.69;;;17.44;31.27
65534;BME280;53640;55.838;37.184;2022-08-21T00:26:28;99994.19;;;17.50;31.35
65534;BME280;53640;55.838;37.184;2022-08-21T00:28:55;100011.28;;;17.57;31.23
65534;BME280;53640;55.838;37.184;2022-08-21T00:31:21;99979.63;;;17.33;31.12
65534;BME280;53640;55.838;37.184;2022-08-21T00:33:48;99977.84;;;17.38;31.34
65534;BME280;53640;55.838;37.184;2022-08-21T00:36:14;100013.41;;;17.55;31.40
65534;BME280;53640;55.838;37.184;2022-08-21T00:38:41;100004.63;;;17.53;31.32
65534;BME280;53640;55.838;37.184;2022-08-21T00:41:09;99986.88;;;17.39;31.08
65534;BME280;53640;55.838;37.184;2022-08-21T00:43:38;100005.03;;;17.45;31.14
65534;BME280;53640;55.838;37.184;2022-08-21T00:46:05;99965.53;;;17.24;30.99
65534;BME280;53640;55.838;37.184;2022-08-21T00:48:32;99994.59;;;17.42;31.11
65534;BME280;53640;55.838;37.184;2022-08-21T00:51:15;99993.66;;;17.36;31.28
65534;BME280;53640;55.838;37.184;2022-08-21T00:53:49;99994.97;;;17.34;31.31
65534;BME280;53640;55.838;37.184;2022-08-21T00:56:19;99990.50;;;17.27;31.20
65534;BME280;53640;55.838;37.184;2022-08-21T00:58:47;99988.81;;;17.26;31.82
65534;BME280;53640;55.838;37.184;2022-08-21T01:01:14;99953.69;;;17.06;31.71
65534;BME280;53640;55.838;37.184;2022-08-21T01:03:41;99988.75;;;17.21;31.91
65534;BME280;53640;55.838;37.184;2022-08-21T01:06:08;100006.31;;;17.25;31.38
65534;BME280;53640;55.838;37.184;2022-08-21T01:08:35;100002.75;;;17.25;31.43
65534;BME280;53640;55.838;37.184;2022-08-21T01:11:03;99984.72;;;17.12;31.76
65534;BME280;53640;55.838;37.184;2022-08-21T01:13:34;100002.91;;;17.18;31.30
65534;BME280;53640;55.838;37.184;2022-08-21T01:16:03;100011.47;;;17.22;31.96
65534;BME280;53640;55.838;37.184;2022-08-21T01:18:31;100018.63;;;17.23;31.90
65534;BME280;53640;55.838;37.184;2022-08-21T01:21:05;100023.22;;;17.22;31.73
65534;BME280;53640;55.838;37.184;2022-08-21T01:23:34;99991.66;;;17.03;31.73
65534;BME280;53640;55.838;37.184;2022-08-21T01:26:02;100003.88;;;17.12;31.58
65534;BME280;53640;55.838;37.184;2022-08-21T01:28:32;99976.47;;;16.95;31.57
65534;BME280;53640;55.838;37.184;2022-08-21T01:31:05;99979.22;;;16.95;31.76
65534;BME280;53640;55.838;37.184;2022-08-21T01:33:33;100003.00;;;16.95;32.13
65534;BME280;53640;55.838;37.184;2022-08-21T01:35:59;99989.91;;;16.97;32.04
65534;BME280;53640;55.838;37.184;2022-08-21T01:38:26;99970.22;;;16.83;31.85
65534;BME280;53640;55.838;37.184;2022-08-21T01:40:52;99998.59;;;16.94;31.98
65534;BME280;53640;55.838;37.184;2022-08-21T01:43:18;99995.75;;;16.89;32.49
65534;BME280;53640;55.838;37.184;2022-08-21T01:45:45;99958.56;;;16.59;32.41
65534;BME280;53640;55.838;37.184;2022-08-21T01:48:11;99983.47;;;16.74;32.06
65534;BME280;53640;55.838;37.184;2022-08-21T01:50:37;99957.63;;;16.53;32.19
65534;BME280;53640;55.838;37.184;2022-08-21T01:53:04;99983.03;;;16.54;32.48
65534;BME280;53640;55.838;37.184;2022-08-21T01:55:30;99994.09;;;16.59;32.74
65534;BME280;53640;55.838;37.184;2022-08-21T01:57:58;99997.78;;;16.53;33.04
65534;BME280;53640;55.838;37.184;2022-08-21T02:00:25;99957.78;;;16.23;33.29
65534;BME280;53640;55.838;37.184;2022-08-21T02:02:51;99995.44;;;16.45;32.70
65534;BME280;53640;55.838;37.184;2022-08-21T02:05:18;99983.56;;;16.39;33.03
65534;BME280;53640;55.838;37.184;2022-08-21T02:07:49;99999.72;;;16.41;32.99
65534;BME280;53640;55.838;37.184;2022-08-21T02:10:18;99973.00;;;16.19;32.95
65534;BME280;53640;55.838;37.184;2022-08-21T02:12:45;99985.47;;;16.15;33.01
65534;BME280;53640;55.838;37.184;2022-08-21T02:15:32;99956.63;;;16.07;33.24
65534;BME280;53640;55.838;37.184;2022-08-21T02:18:00;100009.31;;;16.31;33.31
65534;BME280;53640;55.838;37.184;2022-08-21T02:20:32;99983.13;;;16.07;33.10
65534;BME280;53640;55.838;37.184;2022-08-21T02:22:58;99962.22;;;16.01;33.07
65534;BME280;53640;55.838;37.184;2022-08-21T02:25:27;99987.25;;;16.09;33.59
65534;BME280;53640;55.838;37.184;2022-08-21T02:27:54;100008.97;;;16.16;33.50
65534;BME280;53640;55.838;37.184;2022-08-21T02:30:29;100000.22;;;16.14;33.59
65534;BME280;53640;55.838;37.184;2022-08-21T02:32:56;99971.97;;;15.97;33.26
65534;BME280;53640;55.838;37.184;2022-08-21T02:35:22;99983.47;;;15.99;33.43
65534;BME280;53640;55.838;37.184;2022-08-21T02:37:52;99973.59;;;15.98;33.60
65534;BME280;53640;55.838;37.184;2022-08-21T02:40:20;99991.41;;;16.12;33.45
65534;BME280;53640;55.838;37.184;2022-08-21T02:42:47;99989.63;;;16.06;33.59
65534;BME280;53640;55.838;37.184;2022-08-21T02:45:14;99992.97;;;15.96;33.68
65534;BME280;53640;55.838;37.184;2022-08-21T02:47:48;100009.59;;;16.18;33.38
65534;BME280;53640;55.838;37.184;2022-08-21T02:50:18;99979.53;;;15.95;33.32
65534;BME280;53640;55.838;37.184;2022-08-21T02:52:45;99982.53;;;15.93;33.47
65534;BME280;53640;55.838;37.184;2022-08-21T02:55:12;100023.25;;;16.18;33.54
65534;BME280;53640;55.838;37.184;2022-08-21T02:57:38;99991.66;;;15.87;33.36
65534;BME280;53640;55.838;37.184;2022-08-21T03:00:05;100027.88;;;16.18;33.82
65534;BME280;53640;55.838;37.184;2022-08-21T03:02:31;99999.88;;;15.99;33.89
65534;BME280;53640;55.838;37.184;2022-08-21T03:04:58;100014.81;;;16.08;33.52
65534;BME280;53640;55.838;37.184;2022-08-21T03:07:24;100036.28;;;16.16;33.84
65534;BME280;53640;55.838;37.184;2022-08-21T03:09:50;99996.41;;;15.92;33.85
65534;BME280;53640;55.838;37.184;2022-08-21T03:12:16;100031.81;;;16.10;33.70
65534;BME280;53640;55.838;37.184;2022-08-21T03:14:43;100030.84;;;16.16;33.75
65534;BME280;53640;55.838;37.184;2022-08-21T03:17:09;99993.19;;;15.95;33.69
65534;BME280;53640;55.838;37.184;2022-08-21T03:19:35;100036.28;;;16.16;33.76
65534;BME280;53640;55.838;37.184;2022-08-21T03:22:01;100027.88;;;16.18;33.43
65534;BME280;53640;55.838;37.184;2022-08-21T03:24:28;100013.25;;;16.12;33.50
65534;BME280;53640;55.838;37.184;2022-08-21T03:26:54;100036.53;;;16.26;33.96
65534;BME280;53640;55.838;37.184;2022-08-21T03:29:20;100041.41;;;16.24;33.87
65534;BME280;53640;55.838;37.184;2022-08-21T03:31:46;100015.16;;;16.12;33.43
65534;BME280;53640;55.838;37.184;2022-08-21T03:34:13;99993.06;;;16.01;33.88
65534;BME280;53640;55.838;37.184;2022-08-21T03:36:40;100011.97;;;16.15;33.76
65534;BME280;53640;55.838;37.184;2022-08-21T03:39:06;100024.63;;;16.32;33.50
65534;BME280;53640;55.838;37.184;2022-08-21T03:41:32;100008.97;;;16.16;33.89
65534;BME280;53640;55.838;37.184;2022-08-21T03:43:59;100014.59;;;16.21;33.75
65534;BME280;53640;55.838;37.184;2022-08-21T03:46:25;100027.53;;;16.38;33.70
65534;BME280;53640;55.838;37.184;2022-08-21T03:48:51;100010.53;;;16.24;33.57
65534;BME280;53640;55.838;37.184;2022-08-21T03:51:19;100016.00;;;16.36;33.32
65534;BME280;53640;55.838;37.184;2022-08-21T03:53:45;100008.41;;;16.38;33.31
65534;BME280;53640;55.838;37.184;2022-08-21T03:56:12;100038.31;;;16.56;33.51
65534;BME280;53640;55.838;37.184;2022-08-21T03:58:38;100021.91;;;16.56;33.19
65534;BME280;53640;55.838;37.184;2022-08-21T04:01:05;100028.94;;;16.52;33.45
65534;BME280;53640;55.838;37.184;2022-08-21T04:03:35;100000.78;;;16.51;33.14
65534;BME280;53640;55.838;37.184;2022-08-21T04:06:02;100002.78;;;16.56;33.36
65534;BME280;53640;55.838;37.184;2022-08-21T04:08:28;100005.97;;;16.65;32.97
65534;BME280;53640;55.838;37.184;2022-08-21T04:10:56;100003.22;;;16.65;33.17
65534;BME280;53640;55.838;37.184;2022-08-21T04:13:24;99993.50;;;16.57;33.27
65534;BME280;53640;55.838;37.184;2022-08-21T04:15:50;99978.56;;;16.48;33.19
65534;BME280;53640;55.838;37.184;2022-08-21T04:18:16;99991.56;;;16.69;33.23
65534;BME280;53640;55.838;37.184;2022-08-21T04:20:44;99992.63;;;16.68;32.87
65534;BME280;53640;55.838;37.184;2022-08-21T04:23:12;100013.53;;;16.74;32.69
65534;BME280;53640;55.838;37.184;2022-08-21T04:25:38;99985.25;;;16.69;32.60
65534;BME280;53640;55.838;37.184;2022-08-21T04:28:05;100018.59;;;16.94;32.82
65534;BME280;53640;55.838;37.184;2022-08-21T04:30:31;100028.88;;;17.04;32.99
65534;BME280;53640;55.838;37.184;2022-08-21T04:32:58;99985.91;;;16.88;32.57
65534;BME280;53640;55.838;37.184;2022-08-21T04:35:27;100019.69;;;17.10;32.32
65534;BME280;53640;55.838;37.184;2022-08-21T04:37:53;99993.22;;;16.99;32.52
65534;BME280;53640;55.838;37.184;2022-08-21T04:40:22;100023.50;;;17.21;32.78
65534;BME280;53640;55.838;37.184;2022-08-21T04:42:55;99982.97;;;17.06;32.00
65534;BME280;53640;55.838;37.184;2022-08-21T04:45:29;100031.41;;;17.34;31.98
65534;BME280;53640;55.838;37.184;2022-08-21T04:47:57;100024.25;;;17.33;31.94
65534;BME280;53640;55.838;37.184;2022-08-21T04:50:36;100002.50;;;17.26;32.22
65534;BME280;53640;55.838;37.184;2022-08-21T04:53:08;100025.88;;;17.46;31.67
65534;BME280;53640;55.838;37.184;2022-08-21T04:55:34;99993.31;;;17.33;32.13
65534;BME280;53640;55.838;37.184;2022-08-21T04:58:01;99972.75;;;17.30;31.99
65534;BME280;53640;55.838;37.184;2022-08-21T05:00:28;99985.28;;;17.43;31.66
65534;BME280;53640;55.838;37.184;2022-08-21T05:02:55;99994.84;;;17.57;31.46
65534;BME280;53640;55.838;37.184;2022-08-21T05:05:24;100004.88;;;17.68;31.22
65534;BME280;53640;55.838;37.184;2022-08-21T05:07:52;100013.25;;;17.78;31.31
65534;BME280;53640;55.838;37.184;2022-08-21T05:10:19;99994.59;;;17.75;31.51
65534;BME280;53640;55.838;37.184;2022-08-21T05:12:46;99994.06;;;17.78;30.78
65534;BME280;53640;55.838;37.184;2022-08-21T05:15:12;100014.44;;;17.99;30.80
65534;BME280;53640;55.838;37.184;2022-08-21T05:17:40;100028.78;;;18.07;31.07
65534;BME280;53640;55.838;37.184;2022-08-21T05:20:08;100030.28;;;18.14;30.74
65534;BME280;53640;55.838;37.184;2022-08-21T05:22:34;100014.97;;;18.18;30.12
65534;BME280;53640;55.838;37.184;2022-08-21T05:25:01;100024.50;;;18.33;30.33
65534;BME280;53640;55.838;37.184;2022-08-21T05:27:27;100031.78;;;18.44;30.38
65534;BME280;53640;55.838;37.184;2022-08-21T05:29:56;100039.09;;;18.38;28.93
65534;BME280;53640;55.838;37.184;2022-08-21T05:32:23;100014.31;;;18.50;29.55
65534;BME280;53640;55.838;37.184;2022-08-21T05:34:50;100002.19;;;18.46;29.16
65534;BME280;53640;55.838;37.184;2022-08-21T05:37:16;99978.59;;;18.45;29.02
65534;BME280;53640;55.838;37.184;2022-08-21T05:39:43;100036.59;;;18.75;29.15
65534;BME280;53640;55.838;37.184;2022-08-21T05:42:09;99966.00;;;18.44;29.07
65534;BME280;53640;55.838;37.184;2022-08-21T05:44:35;100029.16;;;18.71;27.71
65534;BME280;53640;55.838;37.184;2022-08-21T05:47:06;100038.69;;;18.90;28.14
65534;BME280;53640;55.838;37.184;2022-08-21T05:49:32;100003.94;;;18.74;27.57
65534;BME280;53640;55.838;37.184;2022-08-21T05:51:59;100030.41;;;19.07;28.41
65534;BME280;53640;55.838;37.184;2022-08-21T05:54:26;99998.97;;;18.93;27.61
65534;BME280;53640;55.838;37.184;2022-08-21T05:56:52;100024.38;;;19.10;27.40
65534;BME280;53640;55.838;37.184;2022-08-21T05:59:19;100008.38;;;19.02;26.80
65534;BME280;53640;55.838;37.184;2022-08-21T06:01:45;100005.44;;;19.09;26.76
65534;BME280;53640;55.838;37.184;2022-08-21T06:04:12;100017.16;;;19.26;26.92
65534;BME280;53640;55.838;37.184;2022-08-21T06:06:39;99998.13;;;19.19;26.61
65534;BME280;53640;55.838;37.184;2022-08-21T06:09:06;100002.13;;;19.34;26.67
65534;BME280;53640;55.838;37.184;2022-08-21T06:11:32;100021.06;;;19.62;26.63
65534;BME280;53640;55.838;37.184;2022-08-21T06:13:59;100007.63;;;19.66;26.52
65534;BME280;53640;55.838;37.184;2022-08-21T06:16:26;100009.25;;;19.99;26.87
65534;BME280;53640;55.838;37.184;2022-08-21T06:18:53;100019.06;;;20.27;26.29
65534;BME280;53640;55.838;37.184;2022-08-21T06:21:19;99985.53;;;20.30;26.36
65534;BME280;53640;55.838;37.184;2022-08-21T06:23:45;99974.94;;;20.54;26.34
65534;BME280;53640;55.838;37.184;2022-08-21T06:26:13;99952.91;;;20.49;25.47
65534;BME280;53640;55.838;37.184;2022-08-21T06:28:41;99981.13;;;20.82;24.97
65534;BME280;53640;55.838;37.184;2022-08-21T06:31:16;99922.94;;;20.53;24.41
65534;BME280;53640;55.838;37.184;2022-08-21T06:33:43;99964.06;;;20.90;24.72
65534;BME280;53640;55.838;37.184;2022-08-21T06:36:10;99994.97;;;21.28;24.83
65534;BME280;53640;55.838;37.184;2022-08-21T06:38:42;99929.66;;;20.87;24.60
65534;BME280;53640;55.838;37.184;2022-08-21T06:41:18;99955.84;;;21.15;24.48
65534;BME280;53640;55.838;37.184;2022-08-21T06:43:45;100001.63;;;21.57;24.06
65534;BME280;53640;55.838;37.184;2022-08-21T06:46:11;99983.72;;;21.50;24.18
65534;BME280;53640;55.838;37.184;2022-08-21T06:48:37;99988.13;;;21.61;24.05
65534;BME280;53640;55.838;37.184;2022-08-21T06:51:04;99985.63;;;21.70;23.27
65534;BME280;53640;55.838;37.184;2022-08-21T06:53:30;99972.97;;;21.69;24.13
65534;BME280;53640;55.838;37.184;2022-08-21T06:55:56;99974.91;;;21.78;23.46
65534;BME280;53640;55.838;37.184;2022-08-21T06:58:23;99965.00;;;21.67;23.19
65534;BME280;53640;55.838;37.184;2022-08-21T07:00:50;100004.88;;;22.00;22.74
65534;BME280;53640;55.838;37.184;2022-08-21T07:03:31;100001.59;;;22.14;22.92
65534;BME280;53640;55.838;37.184;2022-08-21T07:05:57;99992.16;;;22.30;23.70
65534;BME280;53640;55.838;37.184;2022-08-21T07:08:26;99973.72;;;22.25;23.03
65534;BME280;53640;55.838;37.184;2022-08-21T07:10:55;99995.44;;;22.47;22.69
65534;BME280;53640;55.838;37.184;2022-08-21T07:13:22;99980.00;;;22.41;22.37
65534;BME280;53640;55.838;37.184;2022-08-21T07:15:49;99964.00;;;22.38;22.33
65534;BME280;53640;55.838;37.184;2022-08-21T07:18:15;99989.28;;;22.60;22.64
65534;BME280;53640;55.838;37.184;2022-08-21T07:20:42;99981.34;;;22.54;21.97
65534;BME280;53640;55.838;37.184;2022-08-21T07:23:12;99965.03;;;22.57;22.12
65534;BME280;53640;55.838;37.184;2022-08-21T07:25:44;99984.84;;;22.75;22.20
65534;BME280;53640;55.838;37.184;2022-08-21T07:28:10;99982.34;;;22.73;21.80
65534;BME280;53640;55.838;37.184;2022-08-21T07:30:36;99975.44;;;22.81;22.22
65534;BME280;53640;55.838;37.184;2022-08-21T07:33:03;99982.81;;;22.91;21.63
65534;BME280;53640;55.838;37.184;2022-08-21T07:35:29;99954.13;;;22.87;21.88
65534;BME280;53640;55.838;37.184;2022-08-21T07:37:57;99946.66;;;22.92;21.83
65534;BME280;53640;55.838;37.184;2022-08-21T07:40:26;99910.88;;;22.77;21.56
65534;BME280;53640;55.838;37.184;2022-08-21T07:42:52;99988.06;;;23.31;21.68
65534;BME280;53640;55.838;37.184;2022-08-21T07:45:21;99971.22;;;23.33;21.55
65534;BME280;53640;55.838;37.184;2022-08-21T07:47:50;99993.50;;;23.47;21.27
65534;BME280;53640;55.838;37.184;2022-08-21T07:50:28;99947.75;;;23.30;21.17
65534;BME280;53640;55.838;37.184;2022-08-21T07:53:03;99919.94;;;23.22;21.12
65534;BME280;53640;55.838;37.184;2022-08-21T07:55:30;99918.44;;;23.35;21.08
65534;BME280;53640;55.838;37.184;2022-08-21T07:57:56;99953.44;;;23.49;20.64
65534;BME280;53640;55.838;37.184;2022-08-21T08:00:24;99975.06;;;23.71;20.77
65534;BME280;53640;55.838;37.184;2022-08-21T08:02:52;99952.47;;;23.64;20.26
65534;BME280;53640;55.838;37.184;2022-08-21T08:05:26;99943.78;;;23.76;20.58
65534;BME280;53640;55.838;37.184;2022-08-21T08:07:53;99949.94;;;23.97;20.28
65534;BME280;53640;55.838;37.184;2022-08-21T08:10:20;99956.16;;;24.13;20.15
65534;BME280;53640;55.838;37.184;2022-08-21T08:12:47;99984.19;;;24.30;19.79
65534;BME280;53640;55.838;37.184;2022-08-21T08:15:17;99971.91;;;24.36;19.11
65534;BME280;53640;55.838;37.184;2022-08-21T08:17:45;99946.97;;;24.41;19.01
65534;BME280;53640;55.838;37.184;2022-08-21T08:20:13;99890.63;;;24.32;19.03
65534;BME280;53640;55.838;37.184;2022-08-21T08:22:40;99948.81;;;24.89;19.01
65534;BME280;53640;55.838;37.184;2022-08-21T08:25:08;99942.09;;;24.95;18.00
65534;BME280;53640;55.838;37.184;2022-08-21T08:27:37;99957.06;;;25.13;18.15
65534;BME280;53640;55.838;37.184;2022-08-21T08:30:05;99943.66;;;25.20;17.92
65534;BME280;53640;55.838;37.184;2022-08-21T08:32:33;99924.25;;;25.01;18.25
65534;BME280;53640;55.838;37.184;2022-08-21T08:35:01;99926.16;;;25.06;18.06
65534;BME280;53640;55.838;37.184;2022-08-21T08:37:32;99885.50;;;24.82;18.89
65534;BME280;53640;55.838;37.184;2022-08-21T08:40:39;99951.22;;;25.33;18.38
65534;BME280;53640;55.838;37.184;2022-08-21T08:51:22;99935.38;;;25.99;17.58
65534;BME280;53640;55.838;37.184;2022-08-21T08:54:05;99941.75;;;26.27;17.49
65534;BME280;53640;55.838;37.184;2022-08-21T08:56:35;99904.69;;;26.37;17.06
65534;BME280;53640;55.838;37.184;2022-08-21T08:59:08;99949.84;;;26.79;16.62
65534;BME280;53640;55.838;37.184;2022-08-21T09:01:37;99957.34;;;26.92;16.61
65534;BME280;53640;55.838;37.184;2022-08-21T09:04:03;99952.78;;;26.96;16.35
65534;BME280;53640;55.838;37.184;2022-08-21T09:09:22;99956.19;;;26.93;16.91
65534;BME280;53640;55.838;37.184;2022-08-21T09:12:10;99923.25;;;26.64;16.92
65534;BME280;53640;55.838;37.184;2022-08-21T09:14:50;99953.34;;;26.71;16.24
65534;BME280;53640;55.838;37.184;2022-08-21T09:26:01;99920.56;;;26.59;16.83
65534;BME280;53640;55.838;37.184;2022-08-21T09:28:33;99950.16;;;26.91;16.79
65534;BME280;53640;55.838;37.184;2022-08-21T09:31:01;99932.13;;;26.88;16.35
65534;BME280;53640;55.838;37.184;2022-08-21T09:33:29;99921.13;;;26.83;16.49
65534;BME280;53640;55.838;37.184;2022-08-21T09:35:56;99913.22;;;26.77;16.43
65534;BME280;53640;55.838;37.184;2022-08-21T09:38:31;99938.28;;;26.99;15.98
65534;BME280;53640;55.838;37.184;2022-08-21T09:41:04;99940.09;;;27.04;16.17
65534;BME280;53640;55.838;37.184;2022-08-21T09:43:32;99919.16;;;26.98;16.61
65534;BME280;53640;55.838;37.184;2022-08-21T09:46:07;99944.19;;;27.20;15.88
65534;BME280;53640;55.838;37.184;2022-08-21T09:48:44;99880.22;;;26.75;15.38
65534;BME280;53640;55.838;37.184;2022-08-21T09:51:23;99968.25;;;26.88;15.39
65534;BME280;53640;55.838;37.184;2022-08-21T09:54:14;99970.97;;;26.52;15.91
65534;BME280;53640;55.838;37.184;2022-08-21T10:00:25;99906.22;;;25.55;16.30
65534;BME280;53640;55.838;37.184;2022-08-21T10:02:52;99934.72;;;25.42;16.74
65534;BME280;53640;55.838;37.184;2022-08-21T10:05:26;99936.84;;;25.31;16.90
65534;BME280;53640;55.838;37.184;2022-08-21T10:07:56;99930.19;;;25.13;17.32
65534;BME280;53640;55.838;37.184;2022-08-21T10:10:28;99906.69;;;24.92;17.55
65534;BME280;53640;55.838;37.184;2022-08-21T10:21:02;99888.34;;;24.58;18.08
65534;BME280;53640;55.838;37.184;2022-08-21T10:23:59;99828.91;;;24.13;18.09
65534;BME280;53640;55.838;37.184;2022-08-21T10:35:07;99922.94;;;24.61;18.48
65534;BME280;53640;55.838;37.184;2022-08-21T10:38:14;99936.63;;;24.47;17.94
65534;BME280;53640;55.838;37.184;2022-08-21T10:40:56;99807.38;;;23.62;18.49
65534;BME280;53640;55.838;37.184;2022-08-21T10:44:12;99853.91;;;23.78;18.10
65534;BME280;53640;55.838;37.184;2022-08-21T10:47:06;99921.72;;;24.24;18.35
65534;BME280;53640;55.838;37.184;2022-08-21T10:55:31;99771.53;;;23.27;18.24
65534;BME280;53640;55.838;37.184;2022-08-21T10:58:19;99866.63;;;23.79;18.01
65534;BME280;53640;55.838;37.184;2022-08-21T11:01:00;99780.16;;;23.21;17.74
65534;BME280;53640;55.838;37.184;2022-08-21T11:03:38;99888.16;;;23.83;18.38
65534;BME280;53640;55.838;37.184;2022-08-21T11:06:22;99814.56;;;23.33;18.01
65534;BME280;53640;55.838;37.184;2022-08-21T11:09:05;99747.81;;;22.97;17.87
65534;BME280;53640;55.838;37.184;2022-08-21T11:14:25;99900.59;;;23.80;18.05
65534;BME280;53640;55.838;37.184;2022-08-21T11:17:07;99906.69;;;23.82;18.29
65534;BME280;53640;55.838;37.184;2022-08-21T11:19:48;99905.25;;;23.85;18.29
65534;BME280;53640;55.838;37.184;2022-08-21T11:22:21;99901.97;;;23.83;18.52
65534;BME280;53640;55.838;37.184;2022-08-21T11:25:03;99853.53;;;23.61;18.84
65534;BME280;53640;55.838;37.184;2022-08-21T11:27:56;99895.38;;;23.78;17.72
65534;BME280;53640;55.838;37.184;2022-08-21T11:30:28;99898.50;;;23.96;17.77
65534;BME280;53640;55.838;37.184;2022-08-21T11:38:24;99907.41;;;24.17;17.67
65534;BME280;53640;55.838;37.184;2022-08-21T11:44:08;99895.88;;;24.10;17.57
65534;BME280;53640;55.838;37.184;2022-08-21T11:47:02;99889.22;;;23.87;17.82
65534;BME280;53640;55.838;37.184;2022-08-21T11:49:43;99905.41;;;23.98;17.97
65534;BME280;53640;55.838;37.184;2022-08-21T11:52:24;99883.09;;;23.90;18.10
65534;BME280;53640;55.838;37.184;2022-08-21T12:00:32;99838.44;;;23.53;18.16
65534;BME280;53640;55.838;37.184;2022-08-21T12:03:16;99802.56;;;23.19;18.22
65534;BME280;53640;55.838;37.184;2022-08-21T12:08:44;99834.19;;;23.37;17.98
65534;BME280;53640;55.838;37.184;2022-08-21T12:16:40;99788.81;;;23.14;18.25
65534;BME280;53640;55.838;37.184;2022-08-21T12:19:28;99789.63;;;23.15;18.46
65534;BME280;53640;55.838;37.184;2022-08-21T12:21:59;99837.94;;;23.46;18.46
65534;BME280;53640;55.838;37.184;2022-08-21T12:24:48;99801.16;;;23.22;18.99
65534;BME280;53640;55.838;37.184;2022-08-21T12:27:53;99830.13;;;23.53;18.69
65534;BME280;53640;55.838;37.184;2022-08-21T12:32:59;99806.78;;;23.36;19.08
65534;BME280;53640;55.838;37.184;2022-08-21T12:35:37;99818.94;;;23.40;18.96
65534;BME280;53640;55.838;37.184;2022-08-21T12:38:12;99808.38;;;23.18;18.75
65534;BME280;53640;55.838;37.184;2022-08-21T12:43:17;99794.66;;;23.07;19.35
65534;BME280;53640;55.838;37.184;2022-08-21T12:45:47;99795.16;;;23.15;19.32
65534;BME280;53640;55.838;37.184;2022-08-21T12:48:30;99853.31;;;23.58;19.26
65534;BME280;53640;55.838;37.184;2022-08-21T12:53:49;99833.66;;;23.30;19.45
65534;BME280;53640;55.838;37.184;2022-08-21T12:56:33;99845.91;;;23.53;19.51
65534;BME280;53640;55.838;37.184;2022-08-21T12:59:05;99846.19;;;23.51;19.46
65534;BME280;53640;55.838;37.184;2022-08-21T13:01:43;99807.66;;;23.36;19.68
65534;BME280;53640;55.838;37.184;2022-08-21T13:04:14;99797.28;;;23.23;19.27
65534;BME280;53640;55.838;37.184;2022-08-21T13:06:47;99828.09;;;23.35;18.85
65534;BME280;53640;55.838;37.184;2022-08-21T13:09:20;99783.31;;;23.09;19.04
65534;BME280;53640;55.838;37.184;2022-08-21T13:11:49;99812.22;;;23.22;19.09
65534;BME280;53640;55.838;37.184;2022-08-21T13:14:39;99819.44;;;23.18;19.07
65534;BME280;53640;55.838;37.184;2022-08-21T13:17:10;99821.59;;;23.21;19.26
65534;BME280;53640;55.838;37.184;2022-08-21T13:19:37;99812.84;;;23.14;18.79
65534;BME280;53640;55.838;37.184;2022-08-21T13:22:17;99840.84;;;23.31;18.73
65534;BME280;53640;55.838;37.184;2022-08-21T13:24:47;99851.13;;;23.25;18.67
65534;BME280;53640;55.838;37.184;2022-08-21T13:27:29;99830.91;;;23.30;18.18
65534;BME280;53640;55.838;37.184;2022-08-21T13:32:36;99803.38;;;23.20;18.33
65534;BME280;53640;55.838;37.184;2022-08-21T13:35:13;99720.16;;;22.68;18.50
65534;BME280;53640;55.838;37.184;2022-08-21T13:37:42;99771.06;;;22.91;18.35
65534;BME280;53640;55.838;37.184;2022-08-21T13:40:12;99786.94;;;23.04;18.56
65534;BME280;53640;55.838;37.184;2022-08-21T13:42:42;99755.59;;;22.90;18.33
65534;BME280;53640;55.838;37.184;2022-08-21T13:45:21;99811.03;;;23.28;18.52
65534;BME280;53640;55.838;37.184;2022-08-21T13:47:49;99814.38;;;23.25;18.57
65534;BME280;53640;55.838;37.184;2022-08-21T13:50:16;99785.31;;;23.03;18.40
65534;BME280;53640;55.838;37.184;2022-08-21T13:53:20;99830.22;;;23.43;18.86
65534;BME280;53640;55.838;37.184;2022-08-21T13:55:43;99835.50;;;23.45;19.15
65534;BME280;53640;55.838;37.184;2022-08-21T13:58:11;99828.56;;;23.47;19.07
65534;BME280;53640;55.838;37.184;2022-08-21T14:00:49;99821.59;;;23.50;18.93
65534;BME280;53640;55.838;37.184;2022-08-21T14:03:30;99794.06;;;23.40;19.32
65534;BME280;53640;55.838;37.184;2022-08-21T14:05:57;99840.53;;;23.62;19.16
65534;BME280;53640;55.838;37.184;2022-08-21T14:08:32;99835.38;;;23.55;18.82
65534;BME280;53640;55.838;37.184;2022-08-21T14:11:02;99795.41;;;23.47;19.13
65534;BME280;53640;55.838;37.184;2022-08-21T14:13:36;99779.34;;;23.20;18.84
65534;BME280;53640;55.838;37.184;2022-08-21T14:16:14;99809.56;;;23.36;18.64
65534;BME280;53640;55.838;37.184;2022-08-21T14:21:29;99835.31;;;23.31;18.66
65534;BME280;53640;55.838;37.184;2022-08-21T14:24:02;99819.19;;;23.43;19.07
65534;BME280;53640;55.838;37.184;2022-08-21T14:26:29;99846.22;;;23.46;18.78
65534;BME280;53640;55.838;37.184;2022-08-21T14:28:59;99850.75;;;23.37;18.33
65534;BME280;53640;55.838;37.184;2022-08-21T14:31:29;99814.75;;;23.47;18.58